Time;durP1;ratioP1;P1;durP2;ratioP2;P2;SDS_P1;SDS_P2;PMS_P1;PMS_P2;Temp;Humidity;BMP_temperature;BMP_pressure;BME280_temperature;BME280_humidity;BME280_pressure;Samples;Min_cycle;Max_cycle;Signal;HPM_P1;HPM_P2
2023/11/13 00:02:03;;;;;;;2.75;1.55;;;22.50;55.70;;;;;;6038365;23;92438;-86
2023/11/13 00:04:29;;;;;;;2.38;1.20;;;22.50;55.90;;;;;;6054457;23;92156;-85
2023/11/13 00:06:55;;;;;;;3.92;1.60;;;22.40;55.80;;;;;;6049588;23;95579;-87
2023/11/13 00:09:20;;;;;;;3.08;1.67;;;22.40;55.90;;;;;;6050504;23;95429;-85
2023/11/13 00:11:46;;;;;;;3.28;1.35;;;22.40;55.90;;;;;;6052051;23;92626;-84
2023/11/13 00:14:12;;;;;;;4.03;1.88;;;22.40;56.00;;;;;;6052036;23;92234;-84
2023/11/13 00:16:38;;;;;;;3.08;1.83;;;22.40;55.90;;;;;;6050742;23;95475;-85
2023/11/13 00:19:03;;;;;;;3.28;1.50;;;22.30;55.80;;;;;;6053110;23;95304;-85
2023/11/13 00:21:29;;;;;;;2.00;1.38;;;22.40;56.00;;;;;;6051815;23;93875;-83
2023/11/13 00:23:57;;;;;;;1.67;1.58;;;22.30;55.90;;;;;;6051028;23;93191;-86
2023/11/13 00:26:24;;;;;;;2.70;1.70;;;22.30;55.90;;;;;;6051441;23;95603;-84
2023/11/13 00:28:49;;;;;;;2.75;1.50;;;22.30;55.90;;;;;;6051031;23;95190;-85
2023/11/13 00:31:15;;;;;;;3.85;1.65;;;22.30;55.70;;;;;;6053508;23;92003;-85
2023/11/13 00:33:41;;;;;;;2.35;1.33;;;22.20;55.70;;;;;;6053180;23;92461;-87
2023/11/13 00:36:07;;;;;;;2.97;1.80;;;22.20;55.60;;;;;;6051601;23;95464;-86
2023/11/13 00:38:33;;;;;;;2.58;1.48;;;22.20;56.20;;;;;;6052199;23;94620;-84
2023/11/13 00:40:58;;;;;;;3.13;1.50;;;22.20;56.00;;;;;;6051473;23;92512;-84
2023/11/13 00:43:25;;;;;;;2.10;1.55;;;22.20;55.80;;;;;;6054797;23;92116;-86
2023/11/13 00:45:51;;;;;;;2.75;1.40;;;22.20;55.80;;;;;;6051569;23;94096;-86
2023/11/13 00:48:18;;;;;;;1.73;1.27;;;22.20;55.90;;;;;;6052821;23;94320;-86
2023/11/13 00:50:44;;;;;;;2.70;1.38;;;22.10;55.90;;;;;;6052178;23;92182;-86
2023/11/13 00:53:13;;;;;;;1.83;1.33;;;22.10;55.90;;;;;;6055736;23;92366;-86
2023/11/13 00:55:39;;;;;;;2.53;1.67;;;22.10;55.80;;;;;;6055692;23;93072;-85
2023/11/13 00:58:07;;;;;;;1.70;1.20;;;22.10;55.80;;;;;;6054975;23;94751;-85
2023/11/13 01:00:34;;;;;;;2.75;1.50;;;22.10;55.90;;;;;;6055093;23;92488;-85
2023/11/13 01:02:59;;;;;;;2.55;1.50;;;22.10;56.00;;;;;;6052482;23;91461;-84
2023/11/13 01:05:25;;;;;;;1.75;1.33;;;22.10;55.90;;;;;;6050856;23;94296;-86
2023/11/13 01:07:50;;;;;;;2.33;1.50;;;22.10;55.90;;;;;;6050328;23;95120;-85
2023/11/13 01:10:16;;;;;;;1.80;1.25;;;22.10;56.00;;;;;;6054200;23;93627;-86
2023/11/13 01:12:42;;;;;;;2.17;1.48;;;22.00;55.80;;;;;;6048215;23;92282;-85
2023/11/13 01:15:08;;;;;;;2.10;1.30;;;22.00;56.10;;;;;;6050380;23;96042;-85
2023/11/13 01:17:35;;;;;;;2.85;1.67;;;22.00;56.10;;;;;;6053064;23;92531;-85
2023/11/13 01:20:03;;;;;;;1.55;1.42;;;22.00;55.80;;;;;;6051185;23;93066;-86
2023/11/13 01:22:30;;;;;;;2.00;1.20;;;22.00;56.00;;;;;;6052077;23;92614;-85
2023/11/13 01:24:55;;;;;;;1.48;1.20;;;21.90;56.00;;;;;;6050568;23;92730;-85
2023/11/13 01:27:21;;;;;;;2.25;1.30;;;21.90;55.80;;;;;;6051504;23;93144;-86
2023/11/13 01:29:47;;;;;;;1.38;1.27;;;21.90;55.80;;;;;;6049266;23;92566;-86
2023/11/13 01:32:12;;;;;;;2.67;1.42;;;21.90;55.90;;;;;;6052628;23;92231;-86
2023/11/13 01:34:38;;;;;;;1.88;1.48;;;21.90;55.90;;;;;;6051465;23;94658;-86
2023/11/13 01:37:04;;;;;;;1.60;1.17;;;21.90;55.90;;;;;;6050614;23;96031;-85
2023/11/13 01:39:30;;;;;;;1.35;1.10;;;21.90;55.90;;;;;;6051816;23;92235;-86
2023/11/13 01:41:58;;;;;;;2.65;1.42;;;21.80;55.80;;;;;;6052122;23;92255;-85
2023/11/13 01:44:26;;;;;;;2.25;1.52;;;21.80;55.80;;;;;;6048236;23;95615;-87
2023/11/13 01:46:51;;;;;;;1.85;1.30;;;21.90;55.90;;;;;;6050071;23;94709;-84
2023/11/13 01:49:19;;;;;;;1.60;1.10;;;21.80;55.90;;;;;;6053154;23;92254;-86
2023/11/13 01:51:47;;;;;;;1.15;0.90;;;21.80;55.90;;;;;;6050962;23;92448;-85
2023/11/13 01:54:14;;;;;;;2.22;1.20;;;21.80;56.00;;;;;;6048545;23;96781;-85
2023/11/13 01:56:43;;;;;;;1.20;1.10;;;21.80;55.90;;;;;;6047989;23;95872;-85
2023/11/13 01:59:12;;;;;;;1.47;1.13;;;21.80;56.30;;;;;;6049766;23;94159;-85
2023/11/13 02:01:38;;;;;;;1.95;1.50;;;21.80;55.90;;;;;;5997276;23;1230070;-86
2023/11/13 02:04:04;;;;;;;1.38;1.20;;;21.80;55.80;;;;;;6053689;23;92579;-85
2023/11/13 02:06:30;;;;;;;1.88;1.23;;;21.80;55.90;;;;;;6051249;23;92482;-85
2023/11/13 02:08:56;;;;;;;1.48;1.35;;;21.80;55.90;;;;;;6050293;23;92378;-86
2023/11/13 02:11:22;;;;;;;1.98;1.20;;;21.80;55.90;;;;;;6037712;23;92751;-84
2023/11/13 02:13:50;;;;;;;2.40;1.42;;;21.70;55.80;;;;;;6034992;23;94480;-85
2023/11/13 02:16:16;;;;;;;2.85;1.20;;;21.70;55.90;;;;;;6054502;23;92586;-85
2023/11/13 02:18:42;;;;;;;2.40;1.67;;;21.70;55.90;;;;;;6051337;23;91980;-86
2023/11/13 02:21:07;;;;;;;1.35;1.13;;;21.70;56.00;;;;;;6050277;23;92606;-85
2023/11/13 02:23:33;;;;;;;2.15;1.38;;;21.70;55.90;;;;;;6049743;23;96426;-86
2023/11/13 02:26:01;;;;;;;1.88;0.80;;;21.70;56.00;;;;;;6050011;23;96524;-86
2023/11/13 02:28:27;;;;;;;2.43;1.30;;;21.70;55.90;;;;;;6052204;23;92846;-84
2023/11/13 02:30:53;;;;;;;1.58;1.27;;;21.60;56.00;;;;;;6051173;23;92598;-84
2023/11/13 02:33:18;;;;;;;1.73;1.20;;;21.60;56.00;;;;;;6052299;23;92473;-85
2023/11/13 02:35:46;;;;;;;1.85;1.30;;;21.60;56.00;;;;;;6053200;23;93107;-85
2023/11/13 02:38:11;;;;;;;1.45;1.10;;;21.60;56.10;;;;;;6050554;23;92643;-86
2023/11/13 02:40:37;;;;;;;1.88;1.30;;;21.60;55.80;;;;;;6053529;23;91885;-86
2023/11/13 02:43:03;;;;;;;1.58;1.42;;;21.60;55.80;;;;;;6051986;23;95133;-87
2023/11/13 02:45:28;;;;;;;1.95;1.27;;;21.60;55.90;;;;;;6052495;23;92323;-86
2023/11/13 02:47:54;;;;;;;2.10;1.17;;;21.60;56.00;;;;;;6052291;23;92996;-86
2023/11/13 02:50:20;;;;;;;1.75;1.17;;;21.60;56.10;;;;;;6050081;23;93300;-85
2023/11/13 02:52:47;;;;;;;2.28;1.55;;;21.60;56.10;;;;;;6047783;23;95177;-86
2023/11/13 02:55:13;;;;;;;3.30;1.40;;;21.60;56.10;;;;;;6052279;23;92491;-87
2023/11/13 02:57:38;;;;;;;1.35;0.90;;;21.60;56.00;;;;;;6052061;23;92656;-84
2023/11/13 03:00:09;;;;;;;1.13;1.00;;;21.50;56.00;;;;;;6050290;23;92667;-85
2023/11/13 03:02:35;;;;;;;1.40;1.10;;;21.50;56.00;;;;;;6052763;23;93508;-85
2023/11/13 03:05:01;;;;;;;0.80;0.73;;;21.50;55.90;;;;;;6052180;23;93568;-86
2023/11/13 03:07:27;;;;;;;1.40;1.08;;;21.50;56.00;;;;;;6051685;23;92381;-85
2023/11/13 03:09:54;;;;;;;1.75;1.10;;;21.50;56.10;;;;;;6051639;23;92491;-84
2023/11/13 03:12:22;;;;;;;1.55;1.27;;;21.50;56.00;;;;;;6051537;23;93471;-86
2023/11/13 03:14:48;;;;;;;1.60;1.20;;;21.50;56.10;;;;;;6049891;23;96272;-85
2023/11/13 03:17:14;;;;;;;1.27;1.17;;;21.50;56.00;;;;;;6050916;23;92821;-86
2023/11/13 03:19:40;;;;;;;1.33;1.00;;;21.50;56.10;;;;;;6053853;23;92200;-86
2023/11/13 03:22:06;;;;;;;1.30;1.00;;;21.50;56.10;;;;;;6051170;23;93094;-85
2023/11/13 03:24:32;;;;;;;1.70;1.20;;;21.50;56.10;;;;;;6051891;23;93186;-85
2023/11/13 03:26:57;;;;;;;1.25;1.00;;;21.50;56.00;;;;;;6051385;23;92468;-86
2023/11/13 03:29:25;;;;;;;1.10;0.80;;;21.50;56.10;;;;;;6051754;23;91963;-86
2023/11/13 03:31:51;;;;;;;0.93;0.82;;;21.50;56.10;;;;;;6050565;23;94976;-85
2023/11/13 03:34:17;;;;;;;1.95;1.20;;;21.50;56.10;;;;;;6053903;23;92753;-87
2023/11/13 03:36:44;;;;;;;1.15;0.98;;;21.50;56.20;;;;;;6050308;23;94131;-85
2023/11/13 03:39:10;;;;;;;1.67;1.13;;;21.50;56.00;;;;;;6053350;23;92624;-86
2023/11/13 03:41:36;;;;;;;1.65;1.20;;;21.40;56.10;;;;;;6050242;23;95451;-86
2023/11/13 03:44:02;;;;;;;1.77;1.02;;;21.40;56.10;;;;;;6049320;23;95450;-86
2023/11/13 03:46:27;;;;;;;1.38;1.15;;;21.40;56.20;;;;;;6054803;23;92385;-87
2023/11/13 03:48:54;;;;;;;1.42;1.10;;;21.40;56.20;;;;;;6050251;23;92484;-86
2023/11/13 03:51:21;;;;;;;1.95;1.27;;;21.40;56.20;;;;;;6051479;23;95250;-86
2023/11/13 03:53:47;;;;;;;1.20;0.90;;;21.40;56.20;;;;;;6043131;23;94918;-86
2023/11/13 03:56:12;;;;;;;1.85;1.13;;;21.40;56.00;;;;;;6064696;23;92222;-86
2023/11/13 03:58:38;;;;;;;4.07;1.40;;;21.40;56.10;;;;;;6040462;23;92348;-87
2023/11/13 04:01:07;;;;;;;1.33;1.10;;;21.40;56.20;;;;;;6052067;23;97395;-87
2023/11/13 04:03:33;;;;;;;1.58;1.05;;;21.40;56.20;;;;;;6054877;23;93742;-85
2023/11/13 04:05:59;;;;;;;1.92;0.98;;;21.30;56.20;;;;;;6043468;23;91983;-86
2023/11/13 04:08:24;;;;;;;1.92;1.15;;;21.30;56.20;;;;;;6077846;23;92854;-86
2023/11/13 04:10:51;;;;;;;1.98;1.00;;;21.30;56.20;;;;;;6055327;23;93305;-86
2023/11/13 04:13:18;;;;;;;0.98;0.85;;;21.30;56.30;;;;;;6053601;23;95151;-86
2023/11/13 04:15:44;;;;;;;1.85;0.98;;;21.30;56.30;;;;;;6051265;23;93100;-85
2023/11/13 04:18:10;;;;;;;1.55;0.90;;;21.30;56.10;;;;;;6054357;23;91643;-85
2023/11/13 04:20:36;;;;;;;1.80;1.00;;;21.30;56.30;;;;;;6054096;23;92677;-85
2023/11/13 04:23:02;;;;;;;1.02;0.88;;;21.30;56.30;;;;;;6054390;23;92885;-87
2023/11/13 04:25:27;;;;;;;1.40;1.00;;;21.30;56.30;;;;;;6052868;23;93349;-86
2023/11/13 04:27:53;;;;;;;1.40;1.10;;;21.30;56.10;;;;;;6052651;23;92960;-85
2023/11/13 04:30:19;;;;;;;1.27;1.00;;;21.30;56.00;;;;;;6055513;23;93650;-85
2023/11/13 04:32:45;;;;;;;1.48;1.10;;;21.30;56.20;;;;;;6053364;23;95196;-86
2023/11/13 04:35:11;;;;;;;0.95;0.70;;;21.30;56.40;;;;;;6054151;23;92623;-86
2023/11/13 04:37:36;;;;;;;0.98;0.85;;;21.30;56.40;;;;;;6056093;23;92417;-87
2023/11/13 04:40:04;;;;;;;2.38;1.02;;;21.30;56.50;;;;;;6054053;23;100085;-86
2023/11/13 04:42:31;;;;;;;1.40;1.00;;;21.30;56.50;;;;;;6055929;23;92715;-86
2023/11/13 04:44:56;;;;;;;1.00;1.00;;;21.30;56.40;;;;;;6053327;23;92338;-87
2023/11/13 04:47:24;;;;;;;1.10;0.95;;;21.20;56.50;;;;;;6055620;23;92085;-85
2023/11/13 04:49:50;;;;;;;1.42;1.02;;;21.30;56.50;;;;;;6054107;23;93208;-86
2023/11/13 04:52:15;;;;;;;1.00;0.90;;;21.20;56.40;;;;;;6058160;23;94144;-85
2023/11/13 04:54:41;;;;;;;1.67;0.98;;;21.20;56.50;;;;;;6056578;23;92156;-87
2023/11/13 04:57:06;;;;;;;1.10;1.00;;;21.20;56.30;;;;;;6055876;23;92526;-86
2023/11/13 04:59:32;;;;;;;1.27;0.80;;;21.20;56.20;;;;;;6057815;23;93511;-85
2023/11/13 05:01:58;;;;;;;1.27;1.00;;;21.20;56.20;;;;;;6041891;23;95599;-86
2023/11/13 05:04:26;;;;;;;1.10;0.95;;;21.20;56.20;;;;;;6063200;23;92420;-85
2023/11/13 05:06:52;;;;;;;1.00;0.82;;;21.20;56.40;;;;;;6060819;23;91695;-85
2023/11/13 05:09:18;;;;;;;1.00;0.90;;;21.20;56.30;;;;;;6063311;23;92993;-85
2023/11/13 05:11:44;;;;;;;1.35;0.90;;;21.20;56.50;;;;;;6060226;23;93523;-85
2023/11/13 05:14:10;;;;;;;0.95;0.88;;;21.20;56.50;;;;;;6062204;23;92805;-87
2023/11/13 05:16:37;;;;;;;1.52;1.17;;;21.20;56.40;;;;;;6085985;23;91567;-86
2023/11/13 05:19:03;;;;;;;1.20;0.85;;;21.20;56.50;;;;;;6084860;23;98507;-86
2023/11/13 05:21:29;;;;;;;2.30;1.10;;;21.20;56.50;;;;;;6084071;23;91998;-85
2023/11/13 05:23:55;;;;;;;1.13;0.90;;;21.20;56.40;;;;;;6084883;23;92207;-86
2023/11/13 05:26:21;;;;;;;1.40;1.00;;;21.10;56.40;;;;;;6081982;23;93535;-86
2023/11/13 05:28:48;;;;;;;1.30;1.02;;;21.10;56.30;;;;;;6071938;23;96164;-85
2023/11/13 05:31:14;;;;;;;1.10;0.90;;;21.10;56.40;;;;;;6071155;23;94031;-85
2023/11/13 05:33:40;;;;;;;1.23;0.90;;;21.10;56.30;;;;;;6068135;23;92399;-85
2023/11/13 05:36:06;;;;;;;1.83;0.95;;;21.10;56.30;;;;;;6056210;23;92500;-86
2023/11/13 05:38:31;;;;;;;1.63;0.95;;;21.10;56.40;;;;;;6054373;23;96918;-86
2023/11/13 05:40:57;;;;;;;0.85;0.80;;;21.10;56.10;;;;;;6058538;23;93812;-85
2023/11/13 05:43:23;;;;;;;1.50;0.85;;;21.10;56.30;;;;;;6061732;23;91921;-86
2023/11/13 05:45:49;;;;;;;1.10;0.95;;;21.10;56.30;;;;;;6065500;23;92376;-86
2023/11/13 05:48:16;;;;;;;1.05;0.90;;;21.10;56.20;;;;;;6064958;23;93006;-85
2023/11/13 05:50:41;;;;;;;1.38;1.20;;;21.10;56.40;;;;;;6065237;23;95303;-86
2023/11/13 05:53:07;;;;;;;1.42;1.05;;;21.10;56.40;;;;;;6068584;23;92197;-87
2023/11/13 05:55:36;;;;;;;1.48;1.10;;;21.10;56.20;;;;;;6069707;23;91489;-86
2023/11/13 05:58:04;;;;;;;3.22;1.30;;;21.10;56.20;;;;;;6065540;23;99379;-86
2023/11/13 06:00:30;;;;;;;1.40;1.00;;;21.10;56.40;;;;;;6053184;23;92649;-85
2023/11/13 06:02:55;;;;;;;2.40;1.13;;;21.10;56.40;;;;;;6090031;23;93056;-87
2023/11/13 06:05:21;;;;;;;1.15;0.90;;;21.10;56.40;;;;;;6067483;23;92399;-85
2023/11/13 06:07:47;;;;;;;0.85;0.70;;;21.10;56.40;;;;;;6064615;23;95473;-86
2023/11/13 06:10:14;;;;;;;2.47;1.00;;;21.10;56.40;;;;;;6065101;23;93795;-86
2023/11/13 06:12:40;;;;;;;1.58;0.93;;;21.00;56.30;;;;;;6065027;23;92300;-86
2023/11/13 06:15:12;;;;;;;1.48;1.02;;;21.10;56.40;;;;;;6063736;23;92525;-86
2023/11/13 06:17:41;;;;;;;1.48;1.00;;;21.00;56.20;;;;;;6060206;23;95441;-86
2023/11/13 06:20:14;;;;;;;0.82;0.70;;;21.10;56.30;;;;;;6063120;23;92617;-86
2023/11/13 06:22:43;;;;;;;1.55;1.00;;;21.10;56.30;;;;;;6064512;23;92279;-86
2023/11/13 06:25:09;;;;;;;;;;;21.00;56.20;;;;;;6063211;23;91906;-85
2023/11/13 06:27:36;;;;;;;1.40;1.10;;;21.00;56.30;;;;;;6061391;23;94469;-85
2023/11/13 06:30:02;;;;;;;1.17;0.80;;;21.00;56.50;;;;;;6062566;23;92850;-86
2023/11/13 06:32:31;;;;;;;0.98;0.88;;;21.00;56.30;;;;;;6059756;23;92564;-88
2023/11/13 06:34:57;;;;;;;1.17;1.00;;;21.00;56.50;;;;;;6060209;23;92554;-86
2023/11/13 06:37:23;;;;;;;1.50;1.00;;;21.00;56.40;;;;;;6060556;23;92373;-84
2023/11/13 06:39:49;;;;;;;1.23;0.70;;;21.00;56.40;;;;;;6058786;23;95266;-86
2023/11/13 06:42:14;;;;;;;0.82;0.70;;;21.00;56.30;;;;;;6062259;23;91962;-86
2023/11/13 06:44:41;;;;;;;2.55;1.30;;;21.00;56.30;;;;;;6060025;23;91551;-86
2023/11/13 06:47:07;;;;;;;1.20;0.85;;;21.00;56.40;;;;;;6059099;23;93577;-85
2023/11/13 06:49:33;;;;;;;0.90;0.70;;;21.00;56.40;;;;;;6058801;23;94997;-86
2023/11/13 06:51:58;;;;;;;0.73;0.70;;;21.00;56.40;;;;;;6062890;23;93170;-85
2023/11/13 06:54:24;;;;;;;1.27;0.90;;;21.00;56.40;;;;;;6058541;23;91965;-85
2023/11/13 06:56:50;;;;;;;3.28;1.00;;;21.00;56.60;;;;;;6057147;23;95487;-85
2023/11/13 06:59:17;;;;;;;1.45;1.00;;;21.00;56.50;;;;;;6058155;23;94066;-85
2023/11/13 07:01:43;;;;;;;1.50;1.00;;;21.00;56.30;;;;;;6055126;23;92491;-85
2023/11/13 07:04:11;;;;;;;1.35;1.00;;;21.00;56.40;;;;;;6057111;23;92288;-85
2023/11/13 07:06:39;;;;;;;1.38;1.15;;;21.00;56.40;;;;;;6058938;23;92558;-85
2023/11/13 07:09:11;;;;;;;1.40;1.00;;;21.00;56.30;;;;;;6056411;23;94873;-85
2023/11/13 07:11:38;;;;;;;1.70;0.90;;;21.00;56.30;;;;;;6058364;23;92227;-83
2023/11/13 07:14:06;;;;;;;1.88;1.10;;;21.00;56.10;;;;;;6055587;23;92129;-84
2023/11/13 07:16:35;;;;;;;2.05;1.00;;;21.00;56.90;;;;;;6057408;23;93824;-84
2023/11/13 07:19:03;;;;;;;1.92;1.13;;;20.90;56.20;;;;;;6056545;23;93097;-85
2023/11/13 07:21:29;;;;;;;2.70;1.00;;;21.00;56.10;;;;;;6057700;23;92506;-85
2023/11/13 07:23:55;;;;;;;11.88;3.17;;;21.00;56.10;;;;;;6058923;23;92427;-85
2023/11/13 07:26:21;;;;;;;48.53;9.23;;;21.00;56.40;;;;;;6055226;23;93065;-86
2023/11/13 07:28:47;;;;;;;65.47;13.27;;;21.00;56.60;;;;;;6057097;23;92905;-85
2023/11/13 07:31:14;;;;;;;15.98;4.68;;;21.00;56.30;;;;;;6056430;23;92265;-88
2023/11/13 07:33:39;;;;;;;9.38;2.47;;;21.10;56.60;;;;;;6057410;23;91695;-88
2023/11/13 07:36:12;;;;;;;10.15;3.25;;;21.10;56.60;;;;;;6058033;23;94390;-86
2023/11/13 07:38:41;;;;;;;9.15;2.78;;;21.10;56.90;;;;;;6055382;23;92728;-88
2023/11/13 07:41:11;;;;;;;;;;;21.10;56.90;;;;;;6057738;23;93370;-86
2023/11/13 07:43:39;;;;;;;16.00;2.70;;;21.20;57.00;;;;;;6058936;23;92440;-85
2023/11/13 07:46:07;;;;;;;13.20;2.42;;;21.20;57.00;;;;;;6056227;23;99682;-86
2023/11/13 07:48:34;;;;;;;8.33;1.90;;;21.20;57.00;;;;;;6061633;23;92235;-87
2023/11/13 07:51:02;;;;;;;6.78;2.30;;;21.30;57.40;;;;;;6053857;23;92613;-87
2023/11/13 07:53:28;;;;;;;7.10;2.35;;;21.30;57.00;;;;;;6051351;23;92236;-86
2023/11/13 07:55:54;;;;;;;6.38;2.22;;;21.30;57.10;;;;;;6051890;23;92202;-86
2023/11/13 07:58:20;;;;;;;9.02;2.67;;;21.30;57.20;;;;;;6051976;23;93858;-87
2023/11/13 08:00:46;;;;;;;7.05;1.83;;;21.30;57.10;;;;;;6049623;23;92385;-86
2023/11/13 08:03:16;;;;;;;6.03;2.40;;;21.40;57.20;;;;;;6053008;23;92358;-87
2023/11/13 08:05:42;;;;;;;7.10;2.33;;;21.40;57.20;;;;;;6050493;23;96500;-87
2023/11/13 08:08:18;;;;;;;;;;;;;;;;;;;;;
2023/11/13 08:10:47;;;;;;;7.60;2.08;;;21.40;57.20;;;;;;6046540;23;92373;-88
2023/11/13 08:13:14;;;;;;;5.55;1.80;;;21.40;57.40;;;;;;6043742;23;92738;-86
2023/11/13 08:15:42;;;;;;;6.18;2.25;;;21.40;57.40;;;;;;6040783;23;95635;-86
2023/11/13 08:18:14;;;;;;;3.22;1.63;;;21.40;57.40;;;;;;6041242;23;95184;-87
2023/11/13 08:20:49;;;;;;;9.77;2.15;;;21.40;57.30;;;;;;6043265;23;92496;-87
2023/11/13 08:23:15;;;;;;;5.82;2.30;;;21.40;57.40;;;;;;6043650;23;92492;-86
2023/11/13 08:25:42;;;;;;;7.40;2.28;;;21.40;57.50;;;;;;6042775;23;93125;-86
2023/11/13 08:28:09;;;;;;;5.82;1.77;;;21.40;57.50;;;;;;6041240;23;95139;-85
2023/11/13 08:30:35;;;;;;;5.43;1.90;;;21.40;57.30;;;;;;6044848;23;94404;-86
2023/11/13 08:33:01;;;;;;;3.35;1.75;;;21.50;57.20;;;;;;6043661;23;92309;-86
2023/11/13 08:35:26;;;;;;;5.88;1.77;;;21.50;57.40;;;;;;6041822;23;95844;-87
2023/11/13 08:37:54;;;;;;;6.70;1.63;;;21.50;57.50;;;;;;6052018;23;95506;-91
2023/11/13 08:40:25;;;;;;;3.75;1.60;;;21.50;57.40;;;;;;6057038;23;92567;-89
2023/11/13 08:42:51;;;;;;;3.08;1.38;;;21.50;57.50;;;;;;6057189;23;92054;-87
2023/11/13 08:45:17;;;;;;;5.00;1.42;;;21.60;57.70;;;;;;6054418;23;95731;-87
2023/11/13 08:47:45;;;;;;;3.97;1.70;;;21.60;57.70;;;;;;6055605;23;94850;-88
2023/11/13 08:50:13;;;;;;;7.78;1.67;;;21.60;57.60;;;;;;6053143;23;92370;-86
2023/11/13 08:52:40;;;;;;;9.23;2.77;;;21.70;57.50;;;;;;6058802;23;92250;-86
2023/11/13 08:55:10;;;;;;;17.88;3.88;;;21.60;57.30;;;;;;6054676;23;93946;-85
2023/11/13 08:57:41;;;;;;;10.90;3.47;;;21.70;56.40;;;;;;6054186;23;95698;-83
2023/11/13 09:00:18;;;;;;;17.02;3.70;;;21.70;56.60;;;;;;6053936;23;92163;-84
2023/11/13 09:02:56;;;;;;;21.77;4.07;;;21.60;57.50;;;;;;6055816;23;92423;-84
2023/11/13 09:05:26;;;;;;;9.23;2.83;;;21.60;58.10;;;;;;6056348;23;93529;-83
2023/11/13 09:07:55;;;;;;;17.55;4.47;;;21.70;57.80;;;;;;6052872;23;94242;-84
2023/11/13 09:10:26;;;;;;;16.27;4.60;;;21.70;58.80;;;;;;6056027;23;92270;-83
2023/11/13 09:12:52;;;;;;;12.48;3.55;;;21.70;59.10;;;;;;6043733;23;96304;-84
2023/11/13 09:15:18;;;;;;;13.75;4.53;;;21.60;58.70;;;;;;6040436;23;95740;-84
2023/11/13 09:17:46;;;;;;;16.77;4.40;;;21.70;58.50;;;;;;6043057;23;95208;-88
2023/11/13 09:20:15;;;;;;;13.13;4.20;;;21.70;58.60;;;;;;6045611;23;93695;-84
2023/11/13 09:22:42;;;;;;;16.33;3.95;;;21.60;59.00;;;;;;6055466;23;92115;-84
2023/11/13 09:25:08;;;;;;;13.50;3.03;;;21.70;59.20;;;;;;6055185;23;92814;-86
2023/11/13 09:27:33;;;;;;;9.00;3.33;;;21.60;57.80;;;;;;6054976;23;92476;-85
2023/11/13 09:29:59;;;;;;;12.40;4.18;;;21.70;57.90;;;;;;6052737;23;92251;-85
2023/11/13 09:32:25;;;;;;;7.35;2.92;;;21.70;57.90;;;;;;6055277;23;92348;-84
2023/11/13 09:34:54;;;;;;;14.98;3.67;;;21.70;58.00;;;;;;6053852;23;93007;-85
2023/11/13 09:37:21;;;;;;;11.07;2.97;;;21.80;58.30;;;;;;6052705;23;92755;-85
2023/11/13 09:39:48;;;;;;;11.10;2.92;;;21.80;58.20;;;;;;6050247;23;93105;-86
2023/11/13 09:42:16;;;;;;;11.43;2.88;;;21.80;58.80;;;;;;6051250;23;92607;-86
2023/11/13 09:44:43;;;;;;;16.75;3.95;;;21.80;58.20;;;;;;6051452;23;93750;-86
2023/11/13 09:47:10;;;;;;;10.55;2.88;;;21.80;58.60;;;;;;6049677;23;95066;-85
2023/11/13 09:49:43;;;;;;;8.45;3.30;;;21.80;58.20;;;;;;6048637;23;92554;-85
2023/11/13 09:52:09;;;;;;;10.48;3.38;;;21.80;58.20;;;;;;6052054;23;92333;-84
2023/11/13 09:54:36;;;;;;;11.90;4.53;;;21.90;58.60;;;;;;6051558;23;94065;-85
2023/11/13 09:57:02;;;;;;;10.45;3.17;;;21.90;58.90;;;;;;6050908;23;99526;-85
2023/11/13 09:59:33;;;;;;;11.57;3.67;;;21.90;59.00;;;;;;6049638;23;92577;-85
2023/11/13 10:01:59;;;;;;;10.93;3.70;;;21.90;59.40;;;;;;6051846;23;91754;-86
2023/11/13 10:04:25;;;;;;;12.23;3.42;;;21.90;59.30;;;;;;6055098;23;92690;-86
2023/11/13 10:06:52;;;;;;;12.05;3.85;;;21.90;59.40;;;;;;6039376;23;92921;-86
2023/11/13 10:09:22;;;;;;;9.55;3.45;;;21.90;60.10;;;;;;6055051;23;93299;-86
2023/11/13 10:11:51;;;;;;;11.70;4.43;;;21.90;60.40;;;;;;6053867;23;92608;-87
2023/11/13 10:14:17;;;;;;;11.85;3.90;;;21.90;61.30;;;;;;6055344;23;93191;-88
2023/11/13 10:17:00;;;;;;;10.95;4.00;;;21.80;62.70;;;;;;6052651;23;95707;-87
2023/11/13 10:19:27;;;;;;;10.50;3.53;;;21.80;62.30;;;;;;6052699;23;92422;-87
2023/11/13 10:22:46;;;;;;;15.25;3.25;;;21.80;60.90;;;;;;6052860;23;92367;-90
2023/11/13 10:25:12;;;;;;;13.73;4.35;;;21.80;60.80;;;;;;6026794;23;96778;-86
2023/11/13 10:27:44;;;;;;;8.43;3.10;;;21.80;61.40;;;;;;6049842;23;94243;-87
2023/11/13 10:30:10;;;;;;;12.05;3.78;;;21.80;60.60;;;;;;6053524;23;92260;-88
2023/11/13 10:32:36;;;;;;;10.63;3.30;;;21.90;60.70;;;;;;6052649;23;92446;-88
2023/11/13 10:35:04;;;;;;;9.52;4.18;;;21.90;60.20;;;;;;6048487;23;97008;-88
2023/11/13 10:37:31;;;;;;;10.85;3.28;;;21.90;60.00;;;;;;6052363;23;96213;-93
2023/11/13 10:39:57;;;;;;;10.75;3.70;;;22.00;60.10;;;;;;6054426;23;93015;-88
2023/11/13 10:42:27;;;;;;;9.43;3.35;;;21.90;60.20;;;;;;6052689;23;92547;-85
2023/11/13 10:44:58;;;;;;;11.10;3.40;;;21.90;60.20;;;;;;6053063;23;93153;-90
2023/11/13 10:47:32;;;;;;;9.90;3.10;;;22.00;60.30;;;;;;6054554;23;94076;-88
2023/11/13 10:49:59;;;;;;;11.02;3.25;;;22.00;60.40;;;;;;6055586;23;92011;-87
2023/11/13 10:52:29;;;;;;;9.48;3.10;;;22.00;60.90;;;;;;6054247;23;91708;-87
2023/11/13 10:54:58;;;;;;;9.25;3.13;;;22.00;60.70;;;;;;6051940;23;94309;-87
2023/11/13 10:57:25;;;;;;;9.80;3.35;;;22.10;60.80;;;;;;6051867;23;93871;-87
2023/11/13 10:59:53;;;;;;;10.80;3.08;;;22.00;60.80;;;;;;6055615;23;93455;-89
2023/11/13 11:02:43;;;;;;;12.60;3.65;;;22.00;60.80;;;;;;6042143;23;93107;-89
2023/11/13 11:05:24;;;;;;;8.10;3.63;;;22.00;61.10;;;;;;6053627;23;95609;-89
2023/11/13 11:07:54;;;;;;;10.95;3.45;;;22.00;61.20;;;;;;6052329;23;94973;-88
2023/11/13 11:10:25;;;;;;;8.45;3.20;;;22.00;61.40;;;;;;6054326;23;92862;-94
2023/11/13 11:13:10;;;;;;;9.93;3.63;;;22.00;61.60;;;;;;6052391;23;92268;-92
2023/11/13 11:15:50;;;;;;;6.30;2.58;;;22.00;61.60;;;;;;6053186;23;92621;-92
2023/11/13 11:18:21;;;;;;;8.45;3.05;;;22.00;61.50;;;;;;6051952;23;95352;-87
2023/11/13 11:21:08;;;;;;;8.50;2.60;;;22.10;61.80;;;;;;6055607;23;92109;-89
2023/11/13 11:24:02;;;;;;;11.30;3.70;;;22.00;61.30;;;;;;6052898;23;92864;-88
2023/11/13 11:29:03;;;;;;;9.40;3.38;;;22.10;61.70;;;;;;6072881;23;92690;-86
2023/11/13 11:31:38;;;;;;;16.38;3.83;;;22.10;61.50;;;;;;6070922;23;92402;-86
2023/11/13 11:34:07;;;;;;;9.35;3.17;;;22.10;61.60;;;;;;6072577;23;92421;-88
2023/11/13 11:36:37;;;;;;;8.18;3.00;;;22.10;61.60;;;;;;6067852;23;94268;-90
2023/11/13 11:39:13;;;;;;;7.63;3.15;;;22.10;61.40;;;;;;6043916;23;95632;-89
2023/11/13 11:41:41;;;;;;;7.60;3.47;;;22.10;61.30;;;;;;6053748;23;92471;-91
2023/11/13 11:44:11;;;;;;;14.77;3.85;;;22.10;61.10;;;;;;6054456;23;91722;-87
2023/11/13 11:46:46;;;;;;;6.90;2.42;;;22.10;61.10;;;;;;6053659;23;95781;-87
2023/11/13 11:49:44;;;;;;;6.55;2.83;;;22.10;61.10;;;;;;6056189;23;92911;-88
2023/11/13 11:53:49;;;;;;;9.88;3.03;;;22.10;61.20;;;;;;6053270;23;93254;-87
2023/11/13 11:55:53;;;;;;;8.60;2.20;;;22.10;61.10;;;;;;5940212;23;92666;-89
2023/11/13 11:58:19;;;;;;;11.32;3.10;;;22.10;61.00;;;;;;6052871;23;94203;-87
2023/11/13 12:00:45;;;;;;;8.45;3.35;;;22.10;61.00;;;;;;6049791;23;95016;-87
2023/11/13 12:03:10;;;;;;;6.75;3.25;;;22.10;60.90;;;;;;6052252;23;92725;-88
2023/11/13 12:05:36;;;;;;;8.18;3.03;;;22.10;61.00;;;;;;6051373;23;92961;-86
2023/11/13 12:08:06;;;;;;;9.02;3.47;;;22.10;60.80;;;;;;6050610;23;94557;-86
2023/11/13 12:10:33;;;;;;;12.63;3.40;;;22.10;60.70;;;;;;6052725;23;94572;-87
2023/11/13 12:12:59;;;;;;;10.57;3.28;;;22.10;60.90;;;;;;6050803;23;92827;-87
2023/11/13 12:15:26;;;;;;;5.85;2.90;;;22.10;60.70;;;;;;6053035;23;92418;-86
2023/11/13 12:17:53;;;;;;;7.65;2.95;;;22.10;60.60;;;;;;6051965;23;96458;-87
2023/11/13 12:20:18;;;;;;;11.43;3.25;;;22.10;60.60;;;;;;6052513;23;96387;-86
2023/11/13 12:22:45;;;;;;;7.15;3.20;;;22.20;60.90;;;;;;6055478;23;92910;-87
2023/11/13 12:26:13;;;;;;;10.00;3.00;;;22.10;60.80;;;;;;6054930;23;91907;-86
2023/11/13 12:28:40;;;;;;;12.93;3.78;;;22.10;61.00;;;;;;6050726;23;99428;-85
2023/11/13 12:31:16;;;;;;;8.57;3.25;;;22.10;61.10;;;;;;6044626;23;93252;-87
2023/11/13 12:33:44;;;;;;;8.63;2.97;;;22.10;61.40;;;;;;6056005;23;92528;-87
2023/11/13 12:36:13;;;;;;;12.57;2.92;;;22.20;61.30;;;;;;6055355;23;91737;-88
2023/11/13 12:38:47;;;;;;;7.22;3.35;;;22.20;62.00;;;;;;6048401;23;95769;-85
2023/11/13 12:41:14;;;;;;;7.55;3.30;;;22.20;62.00;;;;;;6044288;23;93467;-87
2023/11/13 12:43:43;;;;;;;14.25;3.30;;;22.20;62.10;;;;;;6029354;23;94158;-86
2023/11/13 12:46:09;;;;;;;8.87;3.00;;;22.20;62.10;;;;;;6069566;23;91955;-87
2023/11/13 12:48:35;;;;;;;10.68;2.70;;;22.20;62.50;;;;;;6044176;23;96913;-86
2023/11/13 12:51:05;;;;;;;9.60;3.60;;;22.10;62.70;;;;;;6030129;23;94913;-86
2023/11/13 12:53:34;;;;;;;8.55;3.72;;;22.10;62.70;;;;;;6043666;23;92530;-87